createdAt,value
2017-02-09T00:01:02.550Z,53
2017-02-09T00:02:08.825Z,53
2017-02-09T00:03:14.840Z,53
2017-02-09T00:04:20.991Z,53
2017-02-09T00:05:25.925Z,53
2017-02-09T00:06:31.942Z,53
2017-02-09T00:07:37.969Z,53
2017-02-09T00:08:43.990Z,53
2017-02-09T00:09:50.005Z,53
2017-02-09T00:10:56.025Z,53
2017-02-09T00:12:02.051Z,53
2017-02-09T00:13:08.076Z,53
2017-02-09T00:14:14.094Z,54
2017-02-09T00:15:20.117Z,54
2017-02-09T00:16:26.140Z,54
2017-02-09T00:17:32.173Z,54
2017-02-09T00:18:37.100Z,54
2017-02-09T00:19:42.465Z,53
2017-02-09T00:20:47.399Z,53
2017-02-09T00:21:52.107Z,53
2017-02-09T00:22:57.033Z,53
2017-02-09T00:24:02.394Z,54
2017-02-09T00:25:08.420Z,54
2017-02-09T00:26:14.447Z,54
2017-02-09T00:27:20.479Z,54
2017-02-09T00:28:26.508Z,54
2017-02-09T00:29:32.533Z,54
2017-02-09T00:30:38.563Z,54
2017-02-09T00:31:44.584Z,54
2017-02-09T00:32:50.612Z,54
2017-02-09T00:33:55.978Z,54
2017-02-09T00:35:02.014Z,54
2017-02-09T00:36:07.374Z,54
2017-02-09T00:37:13.403Z,54
2017-02-09T00:38:18.338Z,54
2017-02-09T00:39:23.699Z,54
2017-02-09T00:40:29.726Z,54
2017-02-09T00:41:35.749Z,54
2017-02-09T00:42:41.786Z,53
2017-02-09T00:43:47.805Z,53
2017-02-09T00:44:53.834Z,53
2017-02-09T00:45:59.867Z,53
2017-02-09T00:47:05.894Z,53
2017-02-09T00:48:11.919Z,53
2017-02-09T00:49:16.854Z,53
2017-02-09T00:50:22.875Z,53
2017-02-09T00:51:28.906Z,53
2017-02-09T00:52:34.925Z,53
2017-02-09T00:53:40.941Z,53
2017-02-09T00:54:46.961Z,53
2017-02-09T00:55:52.984Z,53
2017-02-09T00:56:59.004Z,53
2017-02-09T00:58:05.037Z,53
2017-02-09T00:59:11.059Z,53
2017-02-09T01:00:16.419Z,53
2017-02-09T01:01:21.343Z,53
2017-02-09T01:02:27.369Z,53
2017-02-09T01:03:33.395Z,53
2017-02-09T01:04:39.414Z,53
2017-02-09T01:05:45.445Z,53
2017-02-09T01:06:49.696Z,54
2017-02-09T01:07:55.729Z,54
2017-02-09T01:09:01.753Z,54
2017-02-09T01:10:06.674Z,54
2017-02-09T01:11:12.037Z,54
2017-02-09T01:12:16.303Z,54
2017-02-09T01:13:22.330Z,54
2017-02-09T01:14:28.361Z,54
2017-02-09T01:15:34.392Z,54
2017-02-09T01:16:40.414Z,54
2017-02-09T01:17:46.438Z,54
2017-02-09T01:18:52.579Z,54
2017-02-09T01:19:58.601Z,54
2017-02-09T01:21:03.528Z,54
2017-02-09T01:22:09.554Z,54
2017-02-09T01:23:15.583Z,54
2017-02-09T01:24:21.611Z,54
2017-02-09T01:25:26.972Z,54
2017-02-09T01:26:31.667Z,54
2017-02-09T01:27:37.691Z,54
2017-02-09T01:28:43.717Z,54
2017-02-09T01:29:49.739Z,54
2017-02-09T01:30:55.763Z,54
2017-02-09T01:32:01.790Z,54
2017-02-09T01:33:07.151Z,54
2017-02-09T01:34:13.175Z,54
2017-02-09T01:35:19.207Z,54
2017-02-09T01:36:25.229Z,54
2017-02-09T01:37:31.257Z,54
2017-02-09T01:38:37.278Z,54
2017-02-09T01:39:43.308Z,54
2017-02-09T01:40:49.332Z,54
2017-02-09T01:41:55.360Z,54
2017-02-09T01:43:01.378Z,54
2017-02-09T01:44:07.394Z,54
2017-02-09T01:45:13.425Z,54
2017-02-09T01:46:19.449Z,54
2017-02-09T01:47:25.475Z,54
2017-02-09T01:48:31.508Z,54
2017-02-09T01:49:37.535Z,54
2017-02-09T01:50:43.551Z,54
2017-02-09T01:51:49.574Z,54
2017-02-09T01:52:55.597Z,54
2017-02-09T01:54:01.633Z,53
2017-02-09T01:55:06.984Z,53
2017-02-09T01:56:13.011Z,53
2017-02-09T01:57:17.939Z,53
2017-02-09T01:58:23.966Z,53
2017-02-09T01:59:29.987Z,53
2017-02-09T02:00:36.015Z,53
2017-02-09T02:01:42.035Z,53
2017-02-09T02:02:47.400Z,53
2017-02-09T02:03:53.421Z,53
2017-02-09T02:04:59.448Z,53
2017-02-09T02:06:05.477Z,53
2017-02-09T02:07:11.495Z,53
2017-02-09T02:08:17.515Z,53
2017-02-09T02:09:23.533Z,53
2017-02-09T02:10:28.897Z,53
2017-02-09T02:11:34.257Z,53
2017-02-09T02:12:40.277Z,53
2017-02-09T02:13:46.306Z,53
2017-02-09T02:14:52.332Z,53
2017-02-09T02:15:58.350Z,53
2017-02-09T02:17:04.372Z,53
2017-02-09T02:18:10.399Z,53
2017-02-09T02:19:15.768Z,53
2017-02-09T02:20:21.784Z,53
2017-02-09T02:21:27.803Z,53
2017-02-09T02:22:33.820Z,53
2017-02-09T02:23:39.841Z,53
2017-02-09T02:24:45.864Z,53
2017-02-09T02:25:51.889Z,53
2017-02-09T02:26:56.147Z,54
2017-02-09T02:28:02.175Z,54
2017-02-09T02:29:07.533Z,54
2017-02-09T02:30:12.455Z,54
2017-02-09T02:31:18.470Z,54
2017-02-09T02:32:24.501Z,54
2017-02-09T02:33:30.532Z,54
2017-02-09T02:34:35.453Z,54
2017-02-09T02:35:41.484Z,54
2017-02-09T02:36:47.510Z,54
2017-02-09T02:37:53.536Z,54
2017-02-09T02:38:59.559Z,54
2017-02-09T02:40:05.585Z,54
2017-02-09T02:41:11.614Z,54
2017-02-09T02:42:16.537Z,54
2017-02-09T02:43:22.561Z,54
2017-02-09T02:44:28.591Z,54
2017-02-09T02:45:34.610Z,54
2017-02-09T02:46:40.639Z,54
2017-02-09T02:47:46.684Z,54
2017-02-09T02:48:52.704Z,54
2017-02-09T02:49:58.731Z,54
2017-02-09T02:51:04.755Z,54
2017-02-09T02:52:10.771Z,54
2017-02-09T02:53:16.803Z,54
2017-02-09T02:54:22.828Z,54
2017-02-09T02:55:28.845Z,54
2017-02-09T02:56:34.867Z,54
2017-02-09T02:57:40.889Z,54
2017-02-09T02:58:46.253Z,54
2017-02-09T02:59:52.284Z,54
2017-02-09T03:00:58.310Z,54
2017-02-09T03:02:04.336Z,54
2017-02-09T03:03:09.693Z,54
2017-02-09T03:04:15.717Z,54
2017-02-09T03:05:21.742Z,54
2017-02-09T03:06:27.768Z,54
2017-02-09T03:07:33.795Z,54
2017-02-09T03:08:39.817Z,54
2017-02-09T03:09:45.844Z,54
2017-02-09T03:10:50.103Z,54
2017-02-09T03:11:56.122Z,54
2017-02-09T03:13:01.487Z,54
2017-02-09T03:14:07.513Z,54
2017-02-09T03:15:13.534Z,54
2017-02-09T03:16:19.559Z,54
2017-02-09T03:17:24.924Z,54
2017-02-09T03:18:30.952Z,54
2017-02-09T03:19:35.208Z,54
2017-02-09T03:20:41.221Z,54
2017-02-09T03:21:47.244Z,54
2017-02-09T03:22:53.268Z,54
2017-02-09T03:23:59.296Z,55
2017-02-09T03:25:05.316Z,55
2017-02-09T03:26:10.669Z,55
2017-02-09T03:27:15.592Z,55
2017-02-09T03:28:21.611Z,55
2017-02-09T03:29:27.631Z,55
2017-02-09T03:30:33.648Z,55
2017-02-09T03:31:39.676Z,55
2017-02-09T03:32:45.701Z,55
2017-02-09T03:33:51.728Z,55
2017-02-09T03:34:57.748Z,55
2017-02-09T03:36:03.770Z,55
2017-02-09T03:37:09.795Z,55
2017-02-09T03:38:15.819Z,54
2017-02-09T03:39:21.841Z,54
2017-02-09T03:40:27.860Z,54
2017-02-09T03:41:33.882Z,54
2017-02-09T03:42:39.891Z,54
2017-02-09T03:43:45.916Z,55
2017-02-09T03:44:51.281Z,55
2017-02-09T03:45:56.645Z,55
2017-02-09T03:47:01.556Z,55
2017-02-09T03:48:07.582Z,55
2017-02-09T03:49:13.597Z,55
2017-02-09T03:50:19.618Z,55
2017-02-09T03:51:25.638Z,55
2017-02-09T03:52:29.911Z,55
2017-02-09T03:53:35.272Z,55
2017-02-09T03:54:41.291Z,55
2017-02-09T03:55:47.311Z,55
2017-02-09T03:56:53.328Z,55
2017-02-09T03:57:59.351Z,55
2017-02-09T03:59:05.375Z,55
2017-02-09T04:00:11.397Z,55
2017-02-09T04:01:17.421Z,55
2017-02-09T04:02:23.441Z,55
2017-02-09T04:03:29.465Z,55
2017-02-09T04:04:35.489Z,55
2017-02-09T04:05:41.506Z,55
2017-02-09T04:06:47.538Z,55
2017-02-09T04:07:52.895Z,55
2017-02-09T04:08:58.913Z,54
2017-02-09T04:10:03.831Z,54
2017-02-09T04:11:09.858Z,54
2017-02-09T04:12:14.541Z,54
2017-02-09T04:13:19.459Z,54
2017-02-09T04:14:25.483Z,54
2017-02-09T04:15:31.516Z,54
2017-02-09T04:16:37.537Z,54
2017-02-09T04:17:43.561Z,54
2017-02-09T04:18:49.578Z,54
2017-02-09T04:19:54.499Z,54
2017-02-09T04:21:00.519Z,54
2017-02-09T04:22:05.450Z,55
2017-02-09T04:23:11.466Z,55
2017-02-09T04:24:16.822Z,55
2017-02-09T04:25:22.845Z,55
2017-02-09T04:26:28.867Z,55
2017-02-09T04:27:34.887Z,55
2017-02-09T04:28:40.904Z,55
2017-02-09T04:29:46.922Z,55
2017-02-09T04:30:52.942Z,55
2017-02-09T04:31:58.305Z,55
2017-02-09T04:33:04.335Z,55
2017-02-09T04:34:10.348Z,55
2017-02-09T04:35:16.364Z,55
2017-02-09T04:36:21.727Z,55
2017-02-09T04:37:27.753Z,55
2017-02-09T04:38:33.789Z,55
2017-02-09T04:39:39.796Z,55
2017-02-09T04:40:45.821Z,55
2017-02-09T04:41:51.848Z,55
2017-02-09T04:42:57.866Z,55
2017-02-09T04:44:03.882Z,55
2017-02-09T04:45:09.905Z,55
2017-02-09T04:46:15.929Z,55
2017-02-09T04:47:20.847Z,55
2017-02-09T04:48:26.201Z,55
2017-02-09T04:49:32.226Z,55
2017-02-09T04:50:38.251Z,55
2017-02-09T04:51:43.606Z,55
2017-02-09T04:52:49.624Z,55
2017-02-09T04:53:55.646Z,55
2017-02-09T04:55:01.006Z,55
2017-02-09T04:56:07.030Z,55
2017-02-09T04:57:13.052Z,55
2017-02-09T04:58:19.076Z,55
2017-02-09T04:59:25.099Z,55
2017-02-09T05:00:31.124Z,55
2017-02-09T05:01:36.046Z,55
2017-02-09T05:02:42.077Z,55
2017-02-09T05:03:46.335Z,55
2017-02-09T05:04:52.359Z,55
2017-02-09T05:05:58.384Z,55
2017-02-09T05:07:04.403Z,55
2017-02-09T05:08:09.320Z,55
2017-02-09T05:09:14.243Z,56
2017-02-09T05:10:20.257Z,56
2017-02-09T05:11:26.278Z,56
2017-02-09T05:12:30.533Z,56
2017-02-09T05:13:36.557Z,56
2017-02-09T05:14:42.571Z,56
2017-02-09T05:15:47.936Z,56
2017-02-09T05:16:53.290Z,56
2017-02-09T05:17:59.313Z,56
2017-02-09T05:19:05.333Z,56
2017-02-09T05:20:10.258Z,56
2017-02-09T05:21:16.283Z,56
2017-02-09T05:22:22.308Z,56
2017-02-09T05:23:28.331Z,56
2017-02-09T05:24:34.362Z,56
2017-02-09T05:25:40.378Z,56
2017-02-09T05:26:46.398Z,56
2017-02-09T05:27:52.414Z,56
2017-02-09T05:28:57.776Z,56
2017-02-09T05:30:03.132Z,56
2017-02-09T05:31:09.162Z,56
2017-02-09T05:32:15.183Z,56
2017-02-09T05:33:21.196Z,56
2017-02-09T05:34:27.228Z,56
2017-02-09T05:35:33.246Z,56
2017-02-09T05:36:39.264Z,56
2017-02-09T05:37:45.286Z,56
2017-02-09T05:38:50.210Z,57
2017-02-09T05:39:56.228Z,57
2017-02-09T05:41:02.249Z,57
2017-02-09T05:42:08.274Z,57
2017-02-09T05:43:14.298Z,57
2017-02-09T05:44:18.555Z,57
2017-02-09T05:45:24.578Z,57
2017-02-09T05:46:30.601Z,57
2017-02-09T05:47:36.629Z,57
2017-02-09T05:48:42.649Z,57
2017-02-09T05:49:48.667Z,57
2017-02-09T05:50:54.685Z,57
2017-02-09T05:52:00.702Z,57
2017-02-09T05:53:06.728Z,57
2017-02-09T05:54:12.751Z,56
2017-02-09T05:55:18.775Z,56
2017-02-09T05:56:24.797Z,56
2017-02-09T05:57:30.155Z,56
2017-02-09T05:59:43.765Z,56
2017-02-09T06:00:48.686Z,56
2017-02-09T06:01:54.705Z,56
2017-02-09T06:03:00.068Z,56
2017-02-09T06:04:06.093Z,56
2017-02-09T06:05:11.013Z,56
2017-02-09T06:06:17.038Z,56
2017-02-09T06:07:23.056Z,56
2017-02-09T06:08:29.080Z,56
2017-02-09T06:09:35.097Z,56
2017-02-09T06:10:41.117Z,56
2017-02-09T06:11:47.135Z,56
2017-02-09T06:12:53.160Z,56
2017-02-09T06:13:59.190Z,56
2017-02-09T06:15:05.213Z,56
2017-02-09T06:16:10.568Z,56
2017-02-09T06:17:15.492Z,56
2017-02-09T06:18:21.509Z,56
2017-02-09T06:19:27.525Z,56
2017-02-09T06:20:33.541Z,56
2017-02-09T06:21:38.897Z,56
2017-02-09T06:22:44.260Z,56
2017-02-09T06:23:50.278Z,56
2017-02-09T06:24:56.302Z,56
2017-02-09T06:26:00.992Z,56
2017-02-09T06:27:07.014Z,56
2017-02-09T06:28:13.034Z,56
2017-02-09T06:29:19.057Z,56
2017-02-09T06:30:25.084Z,56
2017-02-09T06:31:30.440Z,56
2017-02-09T06:32:36.458Z,56
2017-02-09T06:33:41.820Z,56
2017-02-09T06:34:47.847Z,56
2017-02-09T06:35:53.861Z,56
2017-02-09T06:36:58.779Z,56
2017-02-09T06:38:04.800Z,56
2017-02-09T06:39:10.825Z,56
2017-02-09T06:40:16.840Z,56
2017-02-09T06:41:22.863Z,56
2017-02-09T06:42:28.885Z,56
2017-02-09T06:43:34.907Z,56
2017-02-09T06:44:40.923Z,56
2017-02-09T06:45:46.285Z,56
2017-02-09T06:46:51.648Z,56
2017-02-09T06:47:57.663Z,56
2017-02-09T06:49:03.685Z,56
2017-02-09T06:50:09.706Z,56
2017-02-09T06:51:15.722Z,56
2017-02-09T06:52:21.735Z,56
2017-02-09T06:53:27.098Z,56
2017-02-09T06:54:33.128Z,56
2017-02-09T06:55:38.484Z,56
2017-02-09T06:56:44.502Z,56
2017-02-09T06:57:50.516Z,56
2017-02-09T06:58:56.535Z,56
2017-02-09T07:00:02.566Z,56
2017-02-09T07:01:07.926Z,56
2017-02-09T07:02:13.948Z,56
2017-02-09T07:03:19.299Z,56
2017-02-09T07:04:25.330Z,56
2017-02-09T07:05:31.351Z,56
2017-02-09T07:06:36.704Z,56
2017-02-09T07:07:42.719Z,56
2017-02-09T07:08:48.744Z,56
2017-02-09T07:09:54.768Z,56
2017-02-09T07:11:00.785Z,56
2017-02-09T07:12:06.805Z,56
2017-02-09T07:13:12.852Z,56
2017-02-09T07:14:17.754Z,56
2017-02-09T07:15:23.774Z,56
2017-02-09T07:16:29.798Z,56
2017-02-09T07:17:35.814Z,56
2017-02-09T07:18:40.735Z,56
2017-02-09T07:19:46.756Z,56
2017-02-09T07:20:52.778Z,56
2017-02-09T07:21:58.803Z,56
2017-02-09T07:23:04.821Z,55
2017-02-09T07:24:10.177Z,55
2017-02-09T07:25:15.539Z,55
2017-02-09T07:26:20.898Z,56
2017-02-09T07:27:26.915Z,56
2017-02-09T07:28:32.935Z,55
2017-02-09T07:29:38.960Z,55
2017-02-09T07:30:44.981Z,55
2017-02-09T07:31:51.001Z,55
2017-02-09T07:32:56.362Z,55
2017-02-09T07:34:02.391Z,55
2017-02-09T07:35:07.746Z,55
2017-02-09T07:36:13.773Z,55
2017-02-09T07:37:19.792Z,55
2017-02-09T07:38:25.819Z,55
2017-02-09T07:39:31.837Z,55
2017-02-09T07:40:37.856Z,55
2017-02-09T07:41:43.886Z,55
2017-02-09T07:42:48.811Z,56
2017-02-09T07:43:54.827Z,56
2017-02-09T07:45:00.848Z,56
2017-02-09T07:46:06.206Z,56
2017-02-09T07:47:12.230Z,56
2017-02-09T07:48:18.245Z,56
2017-02-09T07:49:22.941Z,56
2017-02-09T07:50:28.956Z,56
2017-02-09T07:51:34.975Z,56
2017-02-09T07:52:40.998Z,56
2017-02-09T07:53:46.361Z,56
2017-02-09T07:54:52.385Z,56
2017-02-09T07:55:58.402Z,56
2017-02-09T07:57:03.763Z,55
2017-02-09T07:58:09.786Z,55
2017-02-09T07:59:15.806Z,55
2017-02-09T08:00:21.821Z,55
2017-02-09T08:01:27.842Z,55
2017-02-09T08:02:33.864Z,55
2017-02-09T08:03:39.888Z,55
2017-02-09T08:04:45.996Z,55
2017-02-09T08:05:52.312Z,55
2017-02-09T08:06:59.431Z,55
2017-02-09T08:08:05.809Z,55
2017-02-09T08:09:13.632Z,55
2017-02-09T08:10:20.785Z,55
2017-02-09T08:11:29.313Z,55
2017-02-09T08:12:34.476Z,55
2017-02-09T08:13:40.758Z,55
2017-02-09T08:14:46.234Z,55
2017-02-09T08:15:53.323Z,55
2017-02-09T08:16:59.714Z,55
2017-02-09T08:18:05.733Z,55
2017-02-09T08:19:12.033Z,55
2017-02-09T08:20:18.019Z,55
2017-02-09T08:21:24.378Z,55
2017-02-09T08:22:30.755Z,55
2017-02-09T08:23:36.842Z,55
2017-02-09T08:24:42.942Z,55
2017-02-09T08:25:49.133Z,55
2017-02-09T08:26:55.240Z,55
2017-02-09T08:28:01.364Z,55
2017-02-09T08:29:07.674Z,55
2017-02-09T08:30:13.788Z,55
2017-02-09T08:31:20.044Z,55
2017-02-09T08:32:26.217Z,55
2017-02-09T08:33:31.789Z,55
2017-02-09T08:34:36.175Z,55
2017-02-09T08:35:41.696Z,55
2017-02-09T08:36:47.898Z,55
2017-02-09T08:37:53.823Z,55
2017-02-09T08:38:59.929Z,54
2017-02-09T08:40:04.997Z,54
2017-02-09T08:41:10.951Z,54
2017-02-09T08:42:16.987Z,54
2017-02-09T08:43:23.014Z,54
2017-02-09T08:44:28.379Z,54
2017-02-09T08:45:34.403Z,54
2017-02-09T08:46:39.325Z,54
2017-02-09T08:47:45.345Z,54
2017-02-09T08:48:51.446Z,54
2017-02-09T08:49:57.505Z,54
2017-02-09T08:51:03.537Z,54
2017-02-09T08:52:09.558Z,54
2017-02-09T08:53:15.591Z,54
2017-02-09T08:54:21.611Z,54
2017-02-09T08:55:27.631Z,54
2017-02-09T08:56:33.821Z,54
2017-02-09T08:57:39.851Z,54
2017-02-09T08:58:46.201Z,54
2017-02-09T08:59:51.941Z,54
2017-02-09T09:00:56.861Z,54
2017-02-09T09:02:02.880Z,54
2017-02-09T09:03:08.894Z,54
2017-02-09T09:04:14.916Z,54
2017-02-09T09:05:21.355Z,54
2017-02-09T09:06:26.973Z,54
2017-02-09T09:07:32.994Z,53
2017-02-09T09:08:39.013Z,53
2017-02-09T09:09:45.034Z,53
2017-02-09T09:10:51.056Z,53
2017-02-09T09:11:57.074Z,53
2017-02-09T09:13:03.098Z,53
2017-02-09T09:14:09.144Z,53
2017-02-09T09:15:13.462Z,53
2017-02-09T09:16:19.480Z,53
2017-02-09T09:17:25.503Z,53
2017-02-09T09:18:31.541Z,53
2017-02-09T09:19:36.897Z,53
2017-02-09T09:20:43.100Z,53
2017-02-09T09:21:49.013Z,52
2017-02-09T09:22:54.432Z,52
2017-02-09T09:24:00.558Z,53
2017-02-09T09:25:06.827Z,53
2017-02-09T09:26:12.344Z,53
2017-02-09T09:27:18.482Z,53
2017-02-09T09:28:24.642Z,52
2017-02-09T09:29:30.794Z,52
2017-02-09T09:30:37.424Z,52
2017-02-09T09:31:43.076Z,52
2017-02-09T09:32:49.306Z,52
2017-02-09T09:33:55.592Z,53
2017-02-09T09:35:04.013Z,53
2017-02-09T09:36:08.753Z,53
2017-02-09T09:37:14.548Z,53
2017-02-09T09:38:21.009Z,53
2017-02-09T09:39:27.329Z,53
2017-02-09T09:40:34.150Z,53
2017-02-09T09:41:42.787Z,52
2017-02-09T09:42:47.844Z,52
2017-02-09T09:43:54.112Z,52
2017-02-09T09:44:59.387Z,52
2017-02-09T09:46:05.811Z,51
2017-02-09T09:47:12.037Z,51
2017-02-09T09:48:18.201Z,51
2017-02-09T09:49:24.357Z,51
2017-02-09T09:50:30.953Z,51
2017-02-09T09:51:37.001Z,51
2017-02-09T09:52:43.236Z,51
2017-02-09T09:53:49.163Z,51
2017-02-09T09:54:55.177Z,51
2017-02-09T09:56:01.197Z,51
2017-02-09T09:57:07.220Z,51
2017-02-09T09:58:13.242Z,51
2017-02-09T09:59:19.266Z,51
2017-02-09T10:00:25.293Z,51
2017-02-09T10:01:31.308Z,51
2017-02-09T10:02:37.328Z,51
2017-02-09T10:03:43.346Z,50
2017-02-09T10:04:49.378Z,49
2017-02-09T10:05:55.391Z,49
2017-02-09T10:07:01.411Z,49
2017-02-09T10:08:07.427Z,48
2017-02-09T10:09:13.448Z,48
2017-02-09T10:10:19.472Z,48
2017-02-09T10:11:24.394Z,48
2017-02-09T10:12:30.414Z,48
2017-02-09T10:13:36.434Z,48
2017-02-09T10:14:42.457Z,48
2017-02-09T10:15:47.811Z,47
2017-02-09T10:16:53.840Z,47
2017-02-09T10:17:59.860Z,46
2017-02-09T10:19:05.880Z,46
2017-02-09T10:20:11.899Z,46
2017-02-09T10:21:17.252Z,46
2017-02-09T10:22:23.279Z,46
2017-02-09T10:23:29.296Z,45
2017-02-09T10:24:33.549Z,45
2017-02-09T10:25:39.578Z,45
2017-02-09T10:26:45.622Z,44
2017-02-09T10:27:51.620Z,44
2017-02-09T10:28:57.643Z,44
2017-02-09T10:30:03.665Z,44
2017-02-09T10:31:09.687Z,44
2017-02-09T10:32:15.703Z,44
2017-02-09T10:33:21.068Z,44
2017-02-09T10:34:27.083Z,43
2017-02-09T10:35:33.111Z,43
2017-02-09T10:36:38.471Z,44
2017-02-09T10:37:44.497Z,44
2017-02-09T10:38:50.512Z,43
2017-02-09T10:39:55.434Z,43
2017-02-09T10:41:01.460Z,43
2017-02-09T10:42:07.478Z,43
2017-02-09T10:43:13.498Z,43
2017-02-09T10:44:19.528Z,44
2017-02-09T10:45:25.542Z,44
2017-02-09T10:46:30.896Z,44
2017-02-09T10:47:36.255Z,43
2017-02-09T10:48:42.283Z,44
2017-02-09T10:49:48.302Z,43
2017-02-09T10:50:54.329Z,43
2017-02-09T10:52:00.348Z,43
2017-02-09T10:53:06.368Z,43
2017-02-09T10:54:12.426Z,43
2017-02-09T10:55:18.436Z,42
2017-02-09T10:56:24.466Z,42
2017-02-09T10:57:30.501Z,42
2017-02-09T10:58:36.530Z,42
2017-02-09T10:59:42.554Z,42
2017-02-09T11:00:48.572Z,42
2017-02-09T11:01:53.499Z,42
2017-02-09T11:02:59.521Z,42
2017-02-09T11:04:03.780Z,42
2017-02-09T11:05:09.801Z,42
2017-02-09T11:06:15.825Z,42
2017-02-09T11:07:21.855Z,42
2017-02-09T11:08:27.874Z,42
2017-02-09T11:09:33.894Z,42
2017-02-09T11:10:39.917Z,42
2017-02-09T11:11:45.924Z,42
2017-02-09T11:12:51.949Z,42
2017-02-09T11:13:57.965Z,42
2017-02-09T11:15:03.356Z,42
2017-02-09T11:16:09.334Z,42
2017-02-09T11:17:15.355Z,42
2017-02-09T11:18:21.379Z,42
2017-02-09T11:19:26.732Z,42
2017-02-09T11:20:32.745Z,42
2017-02-09T11:21:38.103Z,42
2017-02-09T11:22:44.121Z,42
2017-02-09T11:23:49.483Z,42
2017-02-09T11:24:55.503Z,42
2017-02-09T11:26:01.529Z,42
2017-02-09T11:27:07.550Z,42
2017-02-09T11:28:13.581Z,42
2017-02-09T11:29:19.605Z,42
2017-02-09T11:30:25.623Z,42
2017-02-09T11:31:30.977Z,41
2017-02-09T11:32:36.338Z,41
2017-02-09T11:33:40.593Z,41
2017-02-09T11:34:46.609Z,41
2017-02-09T11:35:52.633Z,41
2017-02-09T11:36:58.657Z,41
2017-02-09T11:38:04.007Z,41
2017-02-09T11:39:10.023Z,41
2017-02-09T11:40:15.386Z,41
2017-02-09T11:41:20.311Z,39
2017-02-09T11:42:26.337Z,39
2017-02-09T11:43:32.359Z,39
2017-02-09T11:44:38.373Z,39
2017-02-09T11:45:44.389Z,40
2017-02-09T11:46:50.408Z,41
2017-02-09T11:47:56.427Z,39
2017-02-09T11:49:02.457Z,40
2017-02-09T11:50:08.467Z,39
2017-02-09T11:51:14.485Z,36
2017-02-09T11:52:20.493Z,35
2017-02-09T11:53:26.512Z,32
2017-02-09T11:54:32.533Z,30
2017-02-09T11:55:37.888Z,30
2017-02-09T11:56:43.900Z,30
2017-02-09T11:57:49.255Z,30
2017-02-09T11:58:55.269Z,30
2017-02-09T12:00:00.620Z,30
2017-02-09T12:01:06.641Z,30
2017-02-09T12:02:12.662Z,30
2017-02-09T12:03:18.686Z,30
2017-02-09T12:04:23.608Z,30
2017-02-09T12:05:28.963Z,30
2017-02-09T12:06:34.979Z,30
2017-02-09T12:07:41.001Z,30
2017-02-09T12:08:47.028Z,30
2017-02-09T12:09:53.044Z,30
2017-02-09T12:10:59.064Z,30
2017-02-09T12:12:03.980Z,30
2017-02-09T12:13:10.050Z,30
2017-02-09T12:14:14.298Z,30
2017-02-09T12:15:20.319Z,30
2017-02-09T12:16:25.678Z,30
2017-02-09T12:17:31.697Z,30
2017-02-09T12:18:37.718Z,30
2017-02-09T12:19:43.739Z,30
2017-02-09T12:20:49.786Z,30
2017-02-09T12:21:55.854Z,30
2017-02-09T12:23:01.904Z,30
2017-02-09T12:24:06.154Z,30
2017-02-09T12:25:12.202Z,30
2017-02-09T12:26:18.255Z,30
2017-02-09T12:27:24.321Z,30
2017-02-09T12:28:30.433Z,30
2017-02-09T12:29:36.424Z,30
2017-02-09T12:30:42.489Z,30
2017-02-09T12:31:48.539Z,30
2017-02-09T12:32:53.909Z,30
2017-02-09T12:33:59.935Z,30
2017-02-09T12:35:05.986Z,30
2017-02-09T12:36:12.028Z,30
2017-02-09T12:37:18.093Z,30
2017-02-09T12:38:24.102Z,30
2017-02-09T12:39:30.123Z,30
2017-02-09T12:40:36.219Z,30
2017-02-09T12:41:42.239Z,30
2017-02-09T12:42:48.277Z,30
2017-02-09T12:43:54.306Z,30
2017-02-09T12:44:59.656Z,30
2017-02-09T12:46:05.674Z,30
2017-02-09T12:47:10.623Z,30
2017-02-09T12:48:16.648Z,30
2017-02-09T12:49:22.665Z,30
2017-02-09T12:50:27.608Z,30
2017-02-09T12:51:33.742Z,30
2017-02-09T12:52:39.716Z,30
2017-02-09T12:53:44.437Z,30
2017-02-09T12:54:49.370Z,30
2017-02-09T12:55:55.396Z,30
2017-02-09T12:57:01.425Z,30
2017-02-09T12:58:07.460Z,30
2017-02-09T12:59:13.478Z,30
2017-02-09T13:00:19.897Z,30
2017-02-09T13:01:25.899Z,30
2017-02-09T13:02:31.254Z,30
2017-02-09T13:03:36.604Z,30
2017-02-09T13:04:42.648Z,30
2017-02-09T13:05:48.690Z,30
2017-02-09T13:06:54.702Z,30
2017-02-09T13:08:00.726Z,30
2017-02-09T13:09:06.759Z,30
2017-02-09T13:10:12.777Z,30
2017-02-09T13:11:18.940Z,30
2017-02-09T13:12:24.983Z,30
2017-02-09T13:13:31.287Z,30
2017-02-09T13:14:37.229Z,30
2017-02-09T13:15:41.487Z,30
2017-02-09T13:16:47.510Z,30
2017-02-09T13:17:52.864Z,30
2017-02-09T13:18:58.903Z,30
2017-02-09T13:20:04.953Z,30
2017-02-09T13:21:10.313Z,30
2017-02-09T13:22:16.353Z,30
2017-02-09T13:23:22.376Z,30
2017-02-09T13:24:28.396Z,30
2017-02-09T13:25:34.429Z,30
2017-02-09T13:26:39.821Z,30
2017-02-09T13:27:45.903Z,30
2017-02-09T13:28:51.921Z,30
2017-02-09T13:29:57.946Z,30
2017-02-09T13:31:03.976Z,30
2017-02-09T13:32:09.989Z,30
2017-02-09T13:33:15.344Z,30
2017-02-09T13:34:21.383Z,30
2017-02-09T13:35:27.426Z,30
2017-02-09T13:36:33.449Z,30
2017-02-09T13:37:39.457Z,30
2017-02-09T13:38:45.475Z,30
2017-02-09T13:39:51.523Z,30
2017-02-09T13:40:56.893Z,30
2017-02-09T13:42:02.907Z,30
2017-02-09T13:43:08.317Z,30
2017-02-09T13:44:13.225Z,30
2017-02-09T13:45:18.145Z,30
2017-02-09T13:46:24.209Z,30
2017-02-09T13:47:30.236Z,30
2017-02-09T13:48:35.183Z,30
2017-02-09T13:49:41.202Z,30
2017-02-09T13:50:47.219Z,30
2017-02-09T13:51:53.233Z,30
2017-02-09T13:52:59.271Z,30
2017-02-09T13:54:05.635Z,30
2017-02-09T13:55:11.665Z,30
2017-02-09T13:56:17.856Z,30
2017-02-09T13:57:23.782Z,30
2017-02-09T13:58:29.805Z,30
2017-02-09T13:59:35.827Z,30
2017-02-09T14:00:41.847Z,30
2017-02-09T14:01:47.860Z,30
2017-02-09T14:02:53.890Z,30
2017-02-09T14:03:59.895Z,30
2017-02-09T14:06:13.522Z,30
2017-02-09T14:07:19.550Z,29
2017-02-09T14:08:24.470Z,29
2017-02-09T14:09:30.494Z,29
2017-02-09T14:10:36.541Z,29
2017-02-09T14:11:42.539Z,29
2017-02-09T14:12:47.901Z,29
2017-02-09T14:13:53.925Z,29
2017-02-09T14:14:59.946Z,29
2017-02-09T14:16:04.859Z,29
2017-02-09T14:17:10.239Z,30
2017-02-09T14:18:16.246Z,30
2017-02-09T14:19:22.258Z,30
2017-02-09T14:20:28.281Z,29
2017-02-09T14:21:34.307Z,29
2017-02-09T14:22:40.378Z,29
2017-02-09T14:23:46.378Z,30
2017-02-09T14:24:51.743Z,30
2017-02-09T14:25:57.834Z,30
2017-02-09T14:27:02.728Z,30
2017-02-09T14:28:08.746Z,30
2017-02-09T14:29:14.804Z,30
2017-02-09T14:30:20.851Z,30
2017-02-09T14:31:26.841Z,30
2017-02-09T14:32:32.193Z,30
2017-02-09T14:33:37.196Z,30
2017-02-09T14:34:43.443Z,30
2017-02-09T14:35:49.466Z,30
2017-02-09T14:36:55.486Z,30
2017-02-09T14:38:01.507Z,30
2017-02-09T14:39:07.528Z,30
2017-02-09T14:40:13.548Z,30
2017-02-09T14:41:19.090Z,30
2017-02-09T14:42:24.939Z,30
2017-02-09T14:43:30.962Z,30
2017-02-09T14:44:35.887Z,30
2017-02-09T14:45:41.910Z,30
2017-02-09T14:46:47.931Z,30
2017-02-09T14:47:52.186Z,30
2017-02-09T14:48:58.202Z,30
2017-02-09T14:50:03.555Z,30
2017-02-09T14:51:09.578Z,30
2017-02-09T14:52:15.606Z,30
2017-02-09T14:53:21.620Z,30
2017-02-09T14:54:27.757Z,30
2017-02-09T14:55:33.776Z,30
2017-02-09T14:56:39.814Z,30
2017-02-09T14:57:45.830Z,30
2017-02-09T14:58:51.875Z,30
2017-02-09T14:59:57.897Z,30
2017-02-09T15:01:02.818Z,30
2017-02-09T15:02:08.949Z,30
2017-02-09T15:03:14.964Z,30
2017-02-09T15:04:20.984Z,30
2017-02-09T15:05:27.011Z,30
2017-02-09T15:06:32.372Z,30
2017-02-09T15:07:38.548Z,30
2017-02-09T15:08:44.395Z,30
2017-02-09T15:09:52.504Z,30
2017-02-09T15:10:58.514Z,30
2017-02-09T15:12:02.778Z,30
2017-02-09T15:13:08.809Z,30
2017-02-09T15:14:14.827Z,30
2017-02-09T15:15:20.845Z,30
2017-02-09T15:16:26.868Z,30
2017-02-09T15:17:32.224Z,30
2017-02-09T15:18:38.249Z,30
2017-02-09T15:19:44.272Z,30
2017-02-09T15:20:50.895Z,30
2017-02-09T15:21:56.912Z,30
2017-02-09T15:23:02.933Z,30
2017-02-09T15:24:08.956Z,30
2017-02-09T15:25:15.006Z,30
2017-02-09T15:26:21.021Z,30
2017-02-09T15:27:27.050Z,32
2017-02-09T15:28:33.062Z,33
2017-02-09T15:29:39.091Z,33
2017-02-09T15:30:45.113Z,35
2017-02-09T15:31:51.156Z,34
2017-02-09T15:32:57.414Z,35
2017-02-09T15:34:03.437Z,36
2017-02-09T15:36:16.613Z,36
2017-02-09T15:37:21.461Z,39
2017-02-09T15:38:27.485Z,39
2017-02-09T15:39:33.563Z,39
2017-02-09T15:40:38.499Z,39
2017-02-09T15:41:44.512Z,37
2017-02-09T15:42:50.538Z,37